sensor_id;sensor_type;location;lat;lon;timestamp;pressure;altitude;pressure_sealevel;temperature;humidity
61961;BME280;47923;42.506;24.192;2023-02-13T00:00:20;97261.78;;;-2.86;74.21
61961;BME280;47923;42.506;24.192;2023-02-13T00:02:46;97268.44;;;-2.84;74.26
61961;BME280;47923;42.506;24.192;2023-02-13T00:05:12;97175.69;;;-3.47;73.73
61961;BME280;47923;42.506;24.192;2023-02-13T00:07:37;97269.38;;;-2.78;73.37
61961;BME280;47923;42.506;24.192;2023-02-13T00:10:03;97232.53;;;-3.03;74.24
61961;BME280;47923;42.506;24.192;2023-02-13T00:12:29;97274.56;;;-2.71;74.43
61961;BME280;47923;42.506;24.192;2023-02-13T00:14:54;97273.84;;;-2.67;74.03
61961;BME280;47923;42.506;24.192;2023-02-13T00:17:20;97295.38;;;-2.63;74.04
61961;BME280;47923;42.506;24.192;2023-02-13T00:19:45;97279.28;;;-2.62;73.54
61961;BME280;47923;42.506;24.192;2023-02-13T00:22:11;97199.66;;;-3.19;73.34
61961;BME280;47923;42.506;24.192;2023-02-13T00:24:36;97182.84;;;-3.24;73.06
61961;BME280;47923;42.506;24.192;2023-02-13T00:27:02;97279.59;;;-2.58;72.80
61961;BME280;47923;42.506;24.192;2023-02-13T00:29:27;96786.16;;;-5.62;72.99
61961;BME280;47923;42.506;24.192;2023-02-13T00:31:53;97249.25;;;-2.79;73.67
61961;BME280;47923;42.506;24.192;2023-02-13T00:34:18;97217.59;;;-2.97;73.21
61961;BME280;47923;42.506;24.192;2023-02-13T00:36:44;97287.81;;;-2.48;72.29
61961;BME280;47923;42.506;24.192;2023-02-13T00:39:10;97275.94;;;-2.45;71.78
61961;BME280;47923;42.506;24.192;2023-02-13T00:41:36;97252.38;;;-2.70;72.53
61961;BME280;47923;42.506;24.192;2023-02-13T00:44:02;97289.06;;;-2.39;73.69
61961;BME280;47923;42.506;24.192;2023-02-13T00:46:27;96967.13;;;-4.42;74.08
61961;BME280;47923;42.506;24.192;2023-02-13T00:48:53;97289.63;;;-2.37;74.16
61961;BME280;47923;42.506;24.192;2023-02-13T00:51:18;97112.50;;;-3.49;73.85
61961;BME280;47923;42.506;24.192;2023-02-13T00:53:44;97299.78;;;-2.34;74.20
61961;BME280;47923;42.506;24.192;2023-02-13T00:56:09;97081.91;;;-3.80;73.85
61961;BME280;47923;42.506;24.192;2023-02-13T00:58:35;97232.31;;;-2.66;73.92
61961;BME280;47923;42.506;24.192;2023-02-13T01:01:00;97156.06;;;-3.16;73.67
61961;BME280;47923;42.506;24.192;2023-02-13T01:03:26;97287.56;;;-2.35;73.76
61961;BME280;47923;42.506;24.192;2023-02-13T01:05:51;97099.50;;;-3.62;73.63
61961;BME280;47923;42.506;24.192;2023-02-13T01:08:18;97289.97;;;-2.33;73.88
61961;BME280;47923;42.506;24.192;2023-02-13T01:10:45;97281.44;;;-2.35;73.02
61961;BME280;47923;42.506;24.192;2023-02-13T01:13:13;97283.88;;;-2.34;72.80
61961;BME280;47923;42.506;24.192;2023-02-13T01:15:39;96946.13;;;-4.49;71.84
61961;BME280;47923;42.506;24.192;2023-02-13T01:18:05;97288.47;;;-2.29;73.04
61961;BME280;47923;42.506;24.192;2023-02-13T01:20:31;97295.38;;;-2.28;73.68
61961;BME280;47923;42.506;24.192;2023-02-13T01:22:57;97130.22;;;-3.26;73.48
61961;BME280;47923;42.506;24.192;2023-02-13T01:25:22;97209.56;;;-2.79;73.77
61961;BME280;47923;42.506;24.192;2023-02-13T01:27:48;97309.56;;;-2.34;73.74
61961;BME280;47923;42.506;24.192;2023-02-13T01:30:17;97289.63;;;-2.37;74.23
61961;BME280;47923;42.506;24.192;2023-02-13T01:32:44;97287.78;;;-2.36;72.89
61961;BME280;47923;42.506;24.192;2023-02-13T01:35:10;97158.94;;;-3.18;72.84
61961;BME280;47923;42.506;24.192;2023-02-13T01:37:36;97299.06;;;-2.29;72.95
61961;BME280;47923;42.506;24.192;2023-02-13T01:40:04;97292.50;;;-2.27;73.22
61961;BME280;47923;42.506;24.192;2023-02-13T01:42:32;97302.31;;;-2.27;73.07
61961;BME280;47923;42.506;24.192;2023-02-13T01:45:17;97071.69;;;-3.76;72.41
61961;BME280;47923;42.506;24.192;2023-02-13T01:47:49;97254.66;;;-2.62;73.39
61961;BME280;47923;42.506;24.192;2023-02-13T01:52:54;97304.47;;;-2.47;74.94
61961;BME280;47923;42.506;24.192;2023-02-13T01:55:20;97228.75;;;-3.07;75.38
61961;BME280;47923;42.506;24.192;2023-02-13T01:57:51;97267.66;;;-2.84;75.23
61961;BME280;47923;42.506;24.192;2023-02-13T02:00:18;97308.25;;;-2.67;75.69
61961;BME280;47923;42.506;24.192;2023-02-13T02:02:50;97273.38;;;-2.99;74.99
61961;BME280;47923;42.506;24.192;2023-02-13T02:05:19;97000.78;;;-4.68;74.88
61961;BME280;47923;42.506;24.192;2023-02-13T02:07:46;97336.28;;;-2.89;75.48
61961;BME280;47923;42.506;24.192;2023-02-13T02:10:15;97029.16;;;-4.82;76.33
61961;BME280;47923;42.506;24.192;2023-02-13T02:13:05;97141.00;;;-4.23;77.07
61961;BME280;47923;42.506;24.192;2023-02-13T02:15:32;97257.13;;;-3.56;77.46
61961;BME280;47923;42.506;24.192;2023-02-13T02:17:58;97314.72;;;-3.46;77.83
61961;BME280;47923;42.506;24.192;2023-02-13T02:50:31;97339.06;;;-4.11;82.44
61961;BME280;47923;42.506;24.192;2023-02-13T03:01:00;97335.16;;;-4.08;78.74
61961;BME280;47923;42.506;24.192;2023-02-13T03:03:46;97245.59;;;-4.65;78.48
61961;BME280;47923;42.506;24.192;2023-02-13T03:09:05;97171.59;;;-5.07;78.44
61961;BME280;47923;42.506;24.192;2023-02-13T03:11:54;97329.13;;;-4.15;79.33
61961;BME280;47923;42.506;24.192;2023-02-13T03:14:38;97294.56;;;-4.51;79.92
61961;BME280;47923;42.506;24.192;2023-02-13T03:17:04;97182.69;;;-5.30;80.03
61961;BME280;47923;42.506;24.192;2023-02-13T03:19:52;97331.88;;;-4.47;80.57
61961;BME280;47923;42.506;24.192;2023-02-13T03:25:56;97330.84;;;-4.71;81.24
61961;BME280;47923;42.506;24.192;2023-02-13T03:28:35;97342.28;;;-4.77;81.18
61961;BME280;47923;42.506;24.192;2023-02-13T03:31:31;97329.19;;;-4.90;82.18
61961;BME280;47923;42.506;24.192;2023-02-13T03:34:06;97326.97;;;-4.93;82.05
61961;BME280;47923;42.506;24.192;2023-02-13T03:39:59;97326.69;;;-5.10;82.90
61961;BME280;47923;42.506;24.192;2023-02-13T03:42:34;97321.84;;;-5.13;82.87
61961;BME280;47923;42.506;24.192;2023-02-13T03:45:12;97279.94;;;-5.53;82.32
61961;BME280;47923;42.506;24.192;2023-02-13T03:48:00;97330.09;;;-5.35;82.45
61961;BME280;47923;42.506;24.192;2023-02-13T03:50:36;97320.47;;;-5.54;82.63
61961;BME280;47923;42.506;24.192;2023-02-13T03:53:07;97252.47;;;-6.02;82.97
61961;BME280;47923;42.506;24.192;2023-02-13T03:55:37;97069.28;;;-7.31;82.89
61961;BME280;47923;42.506;24.192;2023-02-13T03:58:27;97350.03;;;-5.52;82.12
61961;BME280;47923;42.506;24.192;2023-02-13T04:01:15;97340.72;;;-5.54;83.44
61961;BME280;47923;42.506;24.192;2023-02-13T04:03:49;97343.59;;;-5.63;83.36
61961;BME280;47923;42.506;24.192;2023-02-13T04:06:19;97204.91;;;-6.52;83.65
61961;BME280;47923;42.506;24.192;2023-02-13T04:08:45;97285.47;;;-5.99;82.71
61961;BME280;47923;42.506;24.192;2023-02-13T04:11:58;97340.00;;;-5.75;82.97
61961;BME280;47923;42.506;24.192;2023-02-13T04:14:11;97337.59;;;-5.83;83.69
61961;BME280;47923;42.506;24.192;2023-02-13T04:16:48;97109.91;;;-7.33;82.97
61961;BME280;47923;42.506;24.192;2023-02-13T04:19:16;97338.44;;;-5.89;83.12
61961;BME280;47923;42.506;24.192;2023-02-13T04:21:42;96906.63;;;-8.61;82.75
61961;BME280;47923;42.506;24.192;2023-02-13T04:24:08;97341.06;;;-5.89;83.31
61961;BME280;47923;42.506;24.192;2023-02-13T04:26:37;97304.75;;;-6.25;83.97
61961;BME280;47923;42.506;24.192;2023-02-13T04:29:03;97257.47;;;-6.45;84.77
61961;BME280;47923;42.506;24.192;2023-02-13T04:31:29;97327.41;;;-6.24;86.20
61961;BME280;47923;42.506;24.192;2023-02-13T04:33:54;97287.03;;;-6.76;85.99
61961;BME280;47923;42.506;24.192;2023-02-13T04:36:20;97337.94;;;-6.24;85.29
61961;BME280;47923;42.506;24.192;2023-02-13T04:38:45;97327.47;;;-6.31;84.12
61961;BME280;47923;42.506;24.192;2023-02-13T04:41:11;97123.63;;;-7.64;82.88
61961;BME280;47923;42.506;24.192;2023-02-13T04:43:36;97252.47;;;-6.73;82.88
61961;BME280;47923;42.506;24.192;2023-02-13T04:46:02;97316.16;;;-6.51;82.89
61961;BME280;47923;42.506;24.192;2023-02-13T04:48:28;97222.78;;;-7.00;83.93
61961;BME280;47923;42.506;24.192;2023-02-13T04:50:53;97237.75;;;-7.01;84.00
61961;BME280;47923;42.506;24.192;2023-02-13T04:53:19;97225.22;;;-7.05;84.00
61961;BME280;47923;42.506;24.192;2023-02-13T04:55:44;97351.53;;;-6.34;83.87
61961;BME280;47923;42.506;24.192;2023-02-13T04:58:10;97344.22;;;-6.32;83.30
61961;BME280;47923;42.506;24.192;2023-02-13T05:00:35;96522.47;;;-11.65;83.29
61961;BME280;47923;42.506;24.192;2023-02-13T05:03:10;97354.38;;;-6.42;85.10
61961;BME280;47923;42.506;24.192;2023-02-13T05:05:36;97306.28;;;-6.82;84.77
61961;BME280;47923;42.506;24.192;2023-02-13T05:08:02;97359.44;;;-6.54;84.64
61961;BME280;47923;42.506;24.192;2023-02-13T05:10:28;97196.94;;;-7.43;83.22
61961;BME280;47923;42.506;24.192;2023-02-13T05:12:54;97348.09;;;-6.54;83.46
61961;BME280;47923;42.506;24.192;2023-02-13T05:15:19;97348.53;;;-6.64;83.90
61961;BME280;47923;42.506;24.192;2023-02-13T05:17:45;97350.13;;;-6.70;85.04
61961;BME280;47923;42.506;24.192;2023-02-13T05:20:12;97349.31;;;-6.70;84.62
61961;BME280;47923;42.506;24.192;2023-02-13T05:22:45;97356.41;;;-6.71;84.79
61961;BME280;47923;42.506;24.192;2023-02-13T05:25:31;97274.53;;;-7.20;85.51
61961;BME280;47923;42.506;24.192;2023-02-13T05:27:57;97312.94;;;-6.86;86.26
61961;BME280;47923;42.506;24.192;2023-02-13T05:30:23;97227.25;;;-7.40;86.26
61961;BME280;47923;42.506;24.192;2023-02-13T05:32:48;97322.22;;;-6.90;86.28
61961;BME280;47923;42.506;24.192;2023-02-13T05:35:16;97374.00;;;-6.64;86.93
61961;BME280;47923;42.506;24.192;2023-02-13T05:37:42;97339.00;;;-6.91;86.49
61961;BME280;47923;42.506;24.192;2023-02-13T05:40:09;97360.66;;;-6.83;85.51
61961;BME280;47923;42.506;24.192;2023-02-13T05:42:35;97377.84;;;-6.47;84.80
61961;BME280;47923;42.506;24.192;2023-02-13T05:45:00;97385.94;;;-6.42;85.20
61961;BME280;47923;42.506;24.192;2023-02-13T05:47:26;97158.97;;;-7.80;85.09
61961;BME280;47923;42.506;24.192;2023-02-13T05:49:51;97303.66;;;-6.82;83.75
61961;BME280;47923;42.506;24.192;2023-02-13T05:52:16;97379.03;;;-6.17;83.75
61961;BME280;47923;42.506;24.192;2023-02-13T05:54:42;97379.63;;;-6.08;83.13
61961;BME280;47923;42.506;24.192;2023-02-13T05:57:07;96980.41;;;-8.58;83.12
61961;BME280;47923;42.506;24.192;2023-02-13T05:59:33;97388.09;;;-5.93;83.70
61961;BME280;47923;42.506;24.192;2023-02-13T06:01:58;97236.31;;;-6.77;83.70
61961;BME280;47923;42.506;24.192;2023-02-13T06:04:24;97391.22;;;-5.64;83.26
61961;BME280;47923;42.506;24.192;2023-02-13T06:06:49;97389.94;;;-5.48;82.99
61961;BME280;47923;42.506;24.192;2023-02-13T06:09:15;97396.75;;;-5.34;82.84
61961;BME280;47923;42.506;24.192;2023-02-13T06:11:40;97387.34;;;-5.17;82.44
61961;BME280;47923;42.506;24.192;2023-02-13T06:14:06;97396.78;;;-5.03;81.50
61961;BME280;47923;42.506;24.192;2023-02-13T06:16:31;97423.47;;;-4.86;81.41
61961;BME280;47923;42.506;24.192;2023-02-13T06:18:57;97344.28;;;-5.04;81.16
61961;BME280;47923;42.506;24.192;2023-02-13T06:21:22;97290.28;;;-5.20;80.38
61961;BME280;47923;42.506;24.192;2023-02-13T06:23:48;97307.50;;;-4.92;80.12
61961;BME280;47923;42.506;24.192;2023-02-13T06:26:13;97212.72;;;-5.31;78.94
61961;BME280;47923;42.506;24.192;2023-02-13T06:28:39;97400.22;;;-3.96;78.65
61961;BME280;47923;42.506;24.192;2023-02-13T06:31:04;97406.91;;;-3.38;78.93
61961;BME280;47923;42.506;24.192;2023-02-13T06:33:30;97409.56;;;-1.02;74.67
61961;BME280;47923;42.506;24.192;2023-02-13T06:35:55;97398.75;;;1.80;61.28
61961;BME280;47923;42.506;24.192;2023-02-13T06:38:21;97079.28;;;2.14;51.23
61961;BME280;47923;42.506;24.192;2023-02-13T06:40:47;97347.03;;;4.49;47.72
61961;BME280;47923;42.506;24.192;2023-02-13T06:43:13;97283.97;;;5.61;43.86
61961;BME280;47923;42.506;24.192;2023-02-13T06:45:40;97388.00;;;7.41;40.50
61961;BME280;47923;42.506;24.192;2023-02-13T06:48:06;97314.91;;;8.04;38.39
61961;BME280;47923;42.506;24.192;2023-02-13T06:50:32;97357.50;;;8.16;37.34
61961;BME280;47923;42.506;24.192;2023-02-13T06:52:59;97376.41;;;8.44;37.54
61961;BME280;47923;42.506;24.192;2023-02-13T06:55:25;97375.75;;;8.93;36.67
61961;BME280;47923;42.506;24.192;2023-02-13T06:57:51;97370.91;;;9.67;36.49
61961;BME280;47923;42.506;24.192;2023-02-13T07:00:17;97286.75;;;9.43;34.86
61961;BME280;47923;42.506;24.192;2023-02-13T07:02:44;97327.91;;;10.47;33.95
61961;BME280;47923;42.506;24.192;2023-02-13T07:05:10;96563.44;;;6.52;33.40
61961;BME280;47923;42.506;24.192;2023-02-13T07:07:38;97374.81;;;12.00;31.55
61961;BME280;47923;42.506;24.192;2023-02-13T07:10:05;97360.91;;;11.49;31.62
61961;BME280;47923;42.506;24.192;2023-02-13T07:12:34;97376.63;;;11.21;32.28
61961;BME280;47923;42.506;24.192;2023-02-13T07:15:01;97365.66;;;11.26;31.69
61961;BME280;47923;42.506;24.192;2023-02-13T07:17:26;97344.63;;;11.23;31.57
61961;BME280;47923;42.506;24.192;2023-02-13T07:19:52;97368.88;;;11.72;31.36
61961;BME280;47923;42.506;24.192;2023-02-13T07:22:18;97351.66;;;12.28;30.49
61961;BME280;47923;42.506;24.192;2023-02-13T07:24:43;97363.06;;;12.51;30.47
61961;BME280;47923;42.506;24.192;2023-02-13T07:27:08;97370.25;;;13.86;28.49
61961;BME280;47923;42.506;24.192;2023-02-13T07:29:34;97369.44;;;14.06;29.16
61961;BME280;47923;42.506;24.192;2023-02-13T07:31:59;97300.41;;;13.87;27.11
61961;BME280;47923;42.506;24.192;2023-02-13T07:34:25;97361.22;;;13.82;27.92
61961;BME280;47923;42.506;24.192;2023-02-13T07:36:51;97358.19;;;15.11;27.64
61961;BME280;47923;42.506;24.192;2023-02-13T07:39:16;97359.53;;;15.66;25.75
61961;BME280;47923;42.506;24.192;2023-02-13T07:41:42;97338.38;;;16.47;25.40
61961;BME280;47923;42.506;24.192;2023-02-13T07:44:07;97130.34;;;15.11;24.47
61961;BME280;47923;42.506;24.192;2023-02-13T07:46:33;97364.22;;;16.37;24.83
61961;BME280;47923;42.506;24.192;2023-02-13T07:48:58;97356.16;;;17.20;24.71
61961;BME280;47923;42.506;24.192;2023-02-13T07:51:24;97252.47;;;16.56;24.02
61961;BME280;47923;42.506;24.192;2023-02-13T07:53:52;97348.63;;;16.97;24.64
61961;BME280;47923;42.506;24.192;2023-02-13T07:56:17;97320.03;;;17.26;23.33
61961;BME280;47923;42.506;24.192;2023-02-13T07:58:43;97304.84;;;17.83;24.41
61961;BME280;47923;42.506;24.192;2023-02-13T08:01:11;97319.22;;;17.26;24.61
61961;BME280;47923;42.506;24.192;2023-02-13T08:03:37;97314.03;;;17.21;23.73
61961;BME280;47923;42.506;24.192;2023-02-13T08:06:04;97254.31;;;16.68;25.15
61961;BME280;47923;42.506;24.192;2023-02-13T08:08:30;97329.13;;;18.50;24.24
61961;BME280;47923;42.506;24.192;2023-02-13T08:11:04;97255.25;;;17.46;24.06
61961;BME280;47923;42.506;24.192;2023-02-13T08:13:48;97317.91;;;18.78;24.11
61961;BME280;47923;42.506;24.192;2023-02-13T08:16:14;97242.47;;;16.96;24.23
61961;BME280;47923;42.506;24.192;2023-02-13T08:18:39;97304.53;;;16.04;25.92
61961;BME280;47923;42.506;24.192;2023-02-13T08:21:05;97316.81;;;15.70;26.70
61961;BME280;47923;42.506;24.192;2023-02-13T08:23:30;97329.28;;;16.43;26.51
61961;BME280;47923;42.506;24.192;2023-02-13T08:25:59;97322.56;;;16.84;26.64
61961;BME280;47923;42.506;24.192;2023-02-13T08:28:25;97178.16;;;15.25;26.19
61961;BME280;47923;42.506;24.192;2023-02-13T08:30:50;97322.28;;;17.05;24.92
61961;BME280;47923;42.506;24.192;2023-02-13T08:33:16;97266.19;;;16.44;25.42
61961;BME280;47923;42.506;24.192;2023-02-13T08:35:41;97318.56;;;16.81;25.29
61961;BME280;47923;42.506;24.192;2023-02-13T08:38:08;97326.38;;;16.36;25.79
61961;BME280;47923;42.506;24.192;2023-02-13T08:40:34;97310.31;;;17.29;24.87
61961;BME280;47923;42.506;24.192;2023-02-13T08:43:03;97301.97;;;16.11;25.48
61961;BME280;47923;42.506;24.192;2023-02-13T08:45:30;97310.72;;;16.96;25.59
61961;BME280;47923;42.506;24.192;2023-02-13T08:47:57;97301.72;;;17.65;24.87
61961;BME280;47923;42.506;24.192;2023-02-13T08:50:24;97295.59;;;16.98;24.90
61961;BME280;47923;42.506;24.192;2023-02-13T08:52:49;97272.84;;;16.15;25.52
61961;BME280;47923;42.506;24.192;2023-02-13T08:55:15;97300.13;;;16.15;25.97
61961;BME280;47923;42.506;24.192;2023-02-13T08:57:40;97301.22;;;16.42;25.93
61961;BME280;47923;42.506;24.192;2023-02-13T09:00:06;97242.19;;;17.55;24.13
61961;BME280;47923;42.506;24.192;2023-02-13T09:02:32;97219.47;;;16.14;25.23
61961;BME280;47923;42.506;24.192;2023-02-13T09:04:57;97284.34;;;16.68;25.62
61961;BME280;47923;42.506;24.192;2023-02-13T09:07:23;97216.63;;;14.58;27.04
61961;BME280;47923;42.506;24.192;2023-02-13T09:09:49;97019.97;;;13.08;27.73
61961;BME280;47923;42.506;24.192;2023-02-13T09:12:15;97245.50;;;14.87;27.07
61961;BME280;47923;42.506;24.192;2023-02-13T09:14:40;97067.47;;;14.60;26.50
61961;BME280;47923;42.506;24.192;2023-02-13T09:17:05;97190.72;;;15.57;25.89
61961;BME280;47923;42.506;24.192;2023-02-13T09:19:31;97261.16;;;15.99;24.96
61961;BME280;47923;42.506;24.192;2023-02-13T09:21:56;97132.59;;;15.65;24.70
61961;BME280;47923;42.506;24.192;2023-02-13T09:24:22;97271.41;;;17.16;23.76
61961;BME280;47923;42.506;24.192;2023-02-13T09:26:47;97211.81;;;16.36;23.86
61961;BME280;47923;42.506;24.192;2023-02-13T09:29:13;97273.78;;;16.82;24.43
61961;BME280;47923;42.506;24.192;2023-02-13T09:31:39;97269.09;;;17.18;23.91
61961;BME280;47923;42.506;24.192;2023-02-13T09:34:04;97270.00;;;17.61;23.87
61961;BME280;47923;42.506;24.192;2023-02-13T09:36:30;97272.75;;;17.06;24.08
61961;BME280;47923;42.506;24.192;2023-02-13T09:38:56;97159.84;;;15.97;23.89
61961;BME280;47923;42.506;24.192;2023-02-13T09:41:31;97228.16;;;15.88;24.09
61961;BME280;47923;42.506;24.192;2023-02-13T09:49:37;97101.88;;;15.37;24.22
61961;BME280;47923;42.506;24.192;2023-02-13T09:52:04;97120.31;;;15.43;24.76
61961;BME280;47923;42.506;24.192;2023-02-13T09:54:29;97209.19;;;16.39;24.72
61961;BME280;47923;42.506;24.192;2023-02-13T09:57:02;97244.03;;;17.32;23.73
61961;BME280;47923;42.506;24.192;2023-02-13T10:03:17;97254.50;;;17.10;23.12
61961;BME280;47923;42.506;24.192;2023-02-13T10:06:05;97175.66;;;16.54;22.80
61961;BME280;47923;42.506;24.192;2023-02-13T10:08:57;97222.22;;;16.46;23.45
61961;BME280;47923;42.506;24.192;2023-02-13T10:14:16;97213.78;;;17.40;22.57
61961;BME280;47923;42.506;24.192;2023-02-13T10:16:47;97208.88;;;16.92;22.66
61961;BME280;47923;42.506;24.192;2023-02-13T10:21:47;97086.94;;;14.75;23.71
61961;BME280;47923;42.506;24.192;2023-02-13T10:27:05;97115.66;;;15.00;23.38
61961;BME280;47923;42.506;24.192;2023-02-13T10:29:47;97172.56;;;15.33;23.52
61961;BME280;47923;42.506;24.192;2023-02-13T10:32:58;97178.84;;;15.22;23.65
61961;BME280;47923;42.506;24.192;2023-02-13T10:38:22;97180.28;;;15.31;24.07
61961;BME280;47923;42.506;24.192;2023-02-13T10:46:48;97166.66;;;15.03;24.51
61961;BME280;47923;42.506;24.192;2023-02-13T10:52:41;97151.00;;;14.72;25.25
61961;BME280;47923;42.506;24.192;2023-02-13T10:58:14;97093.84;;;13.71;26.50
61961;BME280;47923;42.506;24.192;2023-02-13T11:00:48;97167.88;;;13.92;26.67
61961;BME280;47923;42.506;24.192;2023-02-13T11:03:26;96984.94;;;12.36;27.10
61961;BME280;47923;42.506;24.192;2023-02-13T11:05:54;96931.66;;;12.40;26.82
61961;BME280;47923;42.506;24.192;2023-02-13T11:08:30;97097.00;;;13.73;26.08
61961;BME280;47923;42.506;24.192;2023-02-13T11:10:56;97152.03;;;13.82;26.60
61961;BME280;47923;42.506;24.192;2023-02-13T11:13:24;97135.50;;;13.99;26.71
61961;BME280;47923;42.506;24.192;2023-02-13T11:16:19;97151.25;;;13.81;26.94
61961;BME280;47923;42.506;24.192;2023-02-13T11:18:49;97130.41;;;14.22;26.25
61961;BME280;47923;42.506;24.192;2023-02-13T11:21:21;97141.63;;;14.21;26.14
61961;BME280;47923;42.506;24.192;2023-02-13T11:23:52;97144.56;;;13.34;27.77
61961;BME280;47923;42.506;24.192;2023-02-13T11:26:35;97108.00;;;13.89;26.91
61961;BME280;47923;42.506;24.192;2023-02-13T11:29:17;97124.19;;;13.85;26.42
61961;BME280;47923;42.506;24.192;2023-02-13T11:31:45;97124.75;;;14.15;25.88
61961;BME280;47923;42.506;24.192;2023-02-13T11:34:25;97074.13;;;13.37;26.33
61961;BME280;47923;42.506;24.192;2023-02-13T11:36:53;97118.84;;;13.76;25.71
61961;BME280;47923;42.506;24.192;2023-02-13T11:39:23;97020.69;;;13.29;24.88
61961;BME280;47923;42.506;24.192;2023-02-13T11:41:50;97112.47;;;13.48;25.58
61961;BME280;47923;42.506;24.192;2023-02-13T11:44:27;97108.03;;;13.10;25.95
61961;BME280;47923;42.506;24.192;2023-02-13T11:46:56;97092.91;;;13.54;25.92
61961;BME280;47923;42.506;24.192;2023-02-13T11:49:27;96968.44;;;12.29;25.60
61961;BME280;47923;42.506;24.192;2023-02-13T11:51:55;97101.56;;;13.36;25.41
61961;BME280;47923;42.506;24.192;2023-02-13T11:54:43;97094.91;;;13.00;26.19
61961;BME280;47923;42.506;24.192;2023-02-13T11:59:44;97079.09;;;12.18;27.36
61961;BME280;47923;42.506;24.192;2023-02-13T12:02:21;97085.81;;;11.92;28.01
61961;BME280;47923;42.506;24.192;2023-02-13T12:04:49;96998.53;;;10.80;28.12
61961;BME280;47923;42.506;24.192;2023-02-13T12:07:24;97075.09;;;11.01;29.70
61961;BME280;47923;42.506;24.192;2023-02-13T12:09:56;97038.94;;;10.33;29.93
61961;BME280;47923;42.506;24.192;2023-02-13T12:12:36;97071.34;;;10.24;30.72
61961;BME280;47923;42.506;24.192;2023-02-13T12:15:15;97066.34;;;9.92;31.64
61961;BME280;47923;42.506;24.192;2023-02-13T12:17:44;96981.97;;;9.03;32.47
61961;BME280;47923;42.506;24.192;2023-02-13T12:20:15;97049.06;;;9.53;33.67
61961;BME280;47923;42.506;24.192;2023-02-13T12:28:15;96916.19;;;8.42;33.65
61961;BME280;47923;42.506;24.192;2023-02-13T12:41:16;97044.28;;;8.79;35.54
61961;BME280;47923;42.506;24.192;2023-02-13T12:44:04;97049.63;;;8.71;35.76
61961;BME280;47923;42.506;24.192;2023-02-13T12:46:53;97044.19;;;8.62;35.59
61961;BME280;47923;42.506;24.192;2023-02-13T13:00:16;97032.19;;;8.46;36.58
61961;BME280;47923;42.506;24.192;2023-02-13T13:14:11;97013.09;;;7.84;38.25
61961;BME280;47923;42.506;24.192;2023-02-13T13:19:19;97016.81;;;7.74;39.31
61961;BME280;47923;42.506;24.192;2023-02-13T13:22:01;96969.28;;;7.56;39.55
61961;BME280;47923;42.506;24.192;2023-02-13T13:25:17;97004.03;;;7.80;39.60
61961;BME280;47923;42.506;24.192;2023-02-13T13:27:47;97016.41;;;7.67;39.55
61961;BME280;47923;42.506;24.192;2023-02-13T13:30:21;97017.13;;;7.59;39.48
61961;BME280;47923;42.506;24.192;2023-02-13T13:33:02;96968.50;;;7.41;39.56
61961;BME280;47923;42.506;24.192;2023-02-13T13:35:31;96959.09;;;7.30;39.93
61961;BME280;47923;42.506;24.192;2023-02-13T13:38:23;97007.75;;;7.56;39.98
61961;BME280;47923;42.506;24.192;2023-02-13T13:40:56;97007.47;;;7.58;40.05
61961;BME280;47923;42.506;24.192;2023-02-13T13:43:51;97010.03;;;7.63;39.79
61961;BME280;47923;42.506;24.192;2023-02-13T13:52:25;96997.91;;;7.52;40.36
61961;BME280;47923;42.506;24.192;2023-02-13T13:54:51;97005.88;;;7.43;40.49
61961;BME280;47923;42.506;24.192;2023-02-13T13:57:22;96886.34;;;6.72;41.07
61961;BME280;47923;42.506;24.192;2023-02-13T14:05:34;97001.28;;;7.16;41.76
61961;BME280;47923;42.506;24.192;2023-02-13T14:11:40;96885.59;;;6.38;41.89
61961;BME280;47923;42.506;24.192;2023-02-13T14:16:58;96676.06;;;4.87;42.26
61961;BME280;47923;42.506;24.192;2023-02-13T14:19:36;96992.13;;;6.76;42.33
61961;BME280;47923;42.506;24.192;2023-02-13T14:25:25;96989.28;;;6.67;42.62
61961;BME280;47923;42.506;24.192;2023-02-13T14:27:59;96997.22;;;6.58;42.50
61961;BME280;47923;42.506;24.192;2023-02-13T14:30:31;97004.66;;;6.48;42.79
61961;BME280;47923;42.506;24.192;2023-02-13T14:33:04;96989.44;;;6.43;42.98
61961;BME280;47923;42.506;24.192;2023-02-13T14:35:36;96908.50;;;5.85;43.30
61961;BME280;47923;42.506;24.192;2023-02-13T14:38:05;96986.41;;;6.31;43.65
61961;BME280;47923;42.506;24.192;2023-02-13T14:41:04;96985.28;;;6.18;44.23
61961;BME280;47923;42.506;24.192;2023-02-13T14:43:34;96979.69;;;6.15;44.41
61961;BME280;47923;42.506;24.192;2023-02-13T14:46:21;96992.69;;;6.07;44.54
61961;BME280;47923;42.506;24.192;2023-02-13T14:49:02;96894.38;;;5.41;44.85
61961;BME280;47923;42.506;24.192;2023-02-13T14:51:37;96916.97;;;5.35;45.20
61961;BME280;47923;42.506;24.192;2023-02-13T14:54:08;96978.22;;;5.85;45.40
61961;BME280;47923;42.506;24.192;2023-02-13T14:56:40;96996.72;;;5.67;45.95
61961;BME280;47923;42.506;24.192;2023-02-13T14:59:14;96978.81;;;5.63;45.87
61961;BME280;47923;42.506;24.192;2023-02-13T15:01:51;96993.66;;;5.55;46.65
61961;BME280;47923;42.506;24.192;2023-02-13T15:04:43;96918.41;;;5.09;46.42
61961;BME280;47923;42.506;24.192;2023-02-13T15:07:30;96904.47;;;4.88;47.02
61961;BME280;47923;42.506;24.192;2023-02-13T15:12:57;96979.91;;;5.19;47.29
61961;BME280;47923;42.506;24.192;2023-02-13T15:15:25;96955.28;;;4.93;48.90
61961;BME280;47923;42.506;24.192;2023-02-13T15:17:59;96713.56;;;3.25;47.83
61961;BME280;47923;42.506;24.192;2023-02-13T15:20:29;96989.06;;;4.89;49.58
61961;BME280;47923;42.506;24.192;2023-02-13T15:22:57;96890.75;;;4.18;49.47
61961;BME280;47923;42.506;24.192;2023-02-13T15:25:37;96980.22;;;4.64;49.93
61961;BME280;47923;42.506;24.192;2023-02-13T15:28:13;96947.94;;;4.27;50.27
61961;BME280;47923;42.506;24.192;2023-02-13T15:31:01;96957.78;;;4.31;51.10
61961;BME280;47923;42.506;24.192;2023-02-13T15:33:32;96972.47;;;4.34;51.37
61961;BME280;47923;42.506;24.192;2023-02-13T15:36:05;96977.69;;;4.20;52.11
61961;BME280;47923;42.506;24.192;2023-02-13T15:38:35;96934.91;;;3.81;52.44